| time (UTC) | temp C | wind direction | speed KPH | gust KPH | rain 1hr cm | rain 24hr cm | rain mn cm | humidity % | barometer mb |
| 20260906184103 | 21 | 174 | 3.2 | 8.0 | 0.10 | 2.13 | 2.13 | 66 | 1018.6 |
| 20260906183604 | 21 | 134 | 3.2 | 4.8 | 0.08 | 2.11 | 2.11 | 65 | 1018.6 |
| 20260906183104 | 21 | 155 | 4.8 | 14.5 | 0.08 | 2.11 | 2.11 | 65 | 1018.6 |
| 20260906182104 | 20 | 92 | 1.6 | 4.8 | 0.08 | 2.11 | 2.11 | 67 | 1018.6 |
| 20260906181604 | 21 | 267 | 1.6 | 9.7 | 0.05 | 2.08 | 2.08 | 66 | 1018.3 |
| 20260906181104 | 21 | 18 | 6.4 | 12.9 | 0.03 | 2.06 | 2.06 | 65 | 1018.3 |
| 20260906180604 | 21 | 212 | 4.8 | 16.1 | 0.00 | 2.03 | 2.03 | 65 | 1018.3 |
| 20260906175604 | 21 | 180 | 11.3 | 24.1 | 0.00 | 2.03 | 2.03 | 62 | 1018.6 |
| 20260906174104 | 20 | 180 | 9.7 | 32.2 | 0.00 | 2.03 | 2.03 | 61 | 1017.9 |
| 20260906173604 | 20 | 161 | 16.1 | 29.0 | 0.05 | 2.03 | 2.03 | 61 | 1017.9 |
| 20260906173104 | 20 | 169 | 16.1 | 25.7 | 0.13 | 2.03 | 2.03 | 61 | 1018.6 |
| 20260906172604 | 20 | 148 | 17.7 | 33.8 | 0.15 | 2.03 | 2.03 | 60 | 1018.6 |
| 20260906172104 | 20 | 149 | 16.1 | 35.4 | 0.25 | 2.03 | 2.03 | 57 | 1018.6 |
| 20260906171104 | 20 | 171 | 11.3 | 22.5 | 0.94 | 2.03 | 2.03 | 58 | 1019.3 |
| 20260906170604 | 20 | 195 | 4.8 | 12.9 | 1.52 | 2.03 | 2.03 | 57 | 1019.3 |
| 20260906165604 | 20 | 181 | 14.5 | 27.4 | 2.03 | 2.03 | 2.03 | 48 | 1019.0 |
| 20260906165104 | 20 | 171 | 16.1 | 27.4 | 2.03 | 2.03 | 2.03 | 45 | 1019.0 |
| 20260906164604 | 19 | 172 | 16.1 | 24.1 | 2.03 | 2.03 | 2.03 | 44 | 1019.0 |
| 20260906164104 | 19 | 165 | 8.0 | 19.3 | 2.03 | 2.03 | 2.03 | 44 | 1019.0 |
| 20260906163604 | 18 | 171 | 6.4 | 12.9 | 1.98 | 1.98 | 1.98 | 45 | 1019.0 |
| 20260906162604 | 18 | 56 | 6.4 | 19.3 | 1.88 | 1.88 | 1.88 | 48 | 1017.6 |
| 20260906162104 | 18 | 114 | 4.8 | 16.1 | 1.78 | 1.78 | 1.78 | 56 | 1017.6 |
| 20260906161604 | 19 | 130 | 9.7 | 16.1 | 1.55 | 1.55 | 1.55 | 64 | 1017.6 |
| 20260906161104 | 20 | 138 | 9.7 | 20.9 | 1.09 | 1.09 | 1.09 | 65 | 1017.6 |
| 20260906160604 | 21 | 57 | 4.8 | 14.5 | 0.51 | 0.51 | 0.51 | 62 | 1017.6 |
| 20260906160104 | 21 | 94 | 19.3 | 35.4 | 0.08 | 0.08 | 0.08 | 61 | 1017.3 |
| 20260906155604 | 20 | 18 | 29.0 | 51.5 | 0.00 | 0.00 | 0.00 | 62 | 1017.3 |
| 20260906155104 | 20 | 79 | 22.5 | 49.9 | 0.00 | 0.00 | 0.00 | 61 | 1017.3 |
| 20260906154604 | 21 | 75 | 19.3 | 41.8 | 0.00 | 0.03 | 0.00 | 59 | 1017.3 |
| 20260906154104 | 21 | 78 | 16.1 | 32.2 | 0.00 | 0.03 | 0.00 | 52 | 1017.3 |
| 20260906153604 | 22 | 85 | 11.3 | 32.2 | 0.00 | 0.05 | 0.00 | 53 | 1017.3 |
| 20260906153104 | 22 | 99 | 8.0 | 24.1 | 0.00 | 0.08 | 0.00 | 53 | 1017.3 |
| 20260906152604 | 22 | 105 | 6.4 | 22.5 | 0.00 | 0.10 | 0.00 | 53 | 1017.3 |
| 20260906152104 | 22 | 115 | 4.8 | 16.1 | 0.00 | 0.13 | 0.00 | 54 | 1017.3 |
| 20260906151604 | 22 | 96 | 8.0 | 19.3 | 0.00 | 0.18 | 0.00 | 54 | 1017.3 |
| 20260906151104 | 22 | 106 | 8.0 | 16.1 | 0.00 | 0.18 | 0.00 | 54 | 1017.3 |
| 20260906150604 | 22 | 141 | 4.8 | 11.3 | 0.00 | 0.20 | 0.00 | 54 | 1017.3 |
| 20260906145604 | 22 | 172 | 3.2 | 11.3 | 0.00 | 0.20 | 0.00 | 54 | 1017.6 |
| 20260906145104 | 22 | 157 | 4.8 | 11.3 | 0.00 | 0.20 | 0.00 | 54 | 1017.6 |
| 20260906144604 | 22 | 137 | 6.4 | 14.5 | 0.00 | 0.23 | 0.00 | 54 | 1017.6 |
| 20260906143604 | 22 | 126 | 4.8 | 9.7 | 0.00 | 0.23 | 0.00 | 54 | 1017.6 |
| 20260906143104 | 22 | 139 | 3.2 | 11.3 | 0.00 | 0.23 | 0.00 | 54 | 1017.6 |
| 20260906142604 | 22 | 104 | 3.2 | 14.5 | 0.00 | 0.23 | 0.00 | 54 | 1017.6 |
| 20260906141604 | 22 | 132 | 4.8 | 16.1 | 0.00 | 0.23 | 0.00 | 54 | 1017.6 |
| 20260906141104 | 22 | 147 | 3.2 | 16.1 | 0.00 | 0.23 | 0.00 | 54 | 1017.6 |
| 20260906140604 | 22 | 187 | 4.8 | 11.3 | 0.00 | 0.23 | 0.00 | 54 | 1017.6 |
| 20260906135104 | 22 | 136 | 4.8 | 14.5 | 0.00 | 0.25 | 0.00 | 54 | 1017.3 |
| 20260906134604 | 22 | 155 | 4.8 | 12.9 | 0.00 | 0.30 | 0.00 | 54 | 1017.3 |
| 20260906134104 | 22 | 147 | 4.8 | 11.3 | 0.00 | 0.36 | 0.00 | 54 | 1017.3 |
| 20260906133604 | 22 | 128 | 3.2 | 12.9 | 0.00 | 0.38 | 0.00 | 54 | 1017.3 |
| 20260906133104 | 22 | 172 | 8.0 | 16.1 | 0.00 | 0.38 | 0.00 | 54 | 1017.3 |
| 20260906132604 | 21 | 175 | 9.7 | 16.1 | 0.00 | 0.38 | 0.00 | 54 | 1017.3 |
| 20260906132104 | 21 | 160 | 9.7 | 19.3 | 0.00 | 0.38 | 0.00 | 54 | 1017.3 |
| 20260906131604 | 21 | 175 | 6.4 | 19.3 | 0.00 | 0.38 | 0.00 | 54 | 1017.3 |
| 20260906131104 | 21 | 166 | 11.3 | 19.3 | 0.00 | 0.38 | 0.00 | 53 | 1017.3 |
| 20260906130604 | 21 | 164 | 9.7 | 19.3 | 0.00 | 0.38 | 0.00 | 53 | 1017.3 |
| 20260906125604 | 22 | 164 | 9.7 | 14.5 | 0.00 | 0.38 | 0.00 | 53 | 1016.9 |
| 20260906125104 | 22 | 165 | 9.7 | 20.9 | 0.00 | 0.38 | 0.00 | 53 | 1016.9 |
| 20260906124604 | 22 | 170 | 3.2 | 16.1 | 0.00 | 0.38 | 0.00 | 53 | 1016.9 |
| 20260906124104 | 22 | 169 | 6.4 | 19.3 | 0.00 | 0.38 | 0.00 | 53 | 1016.9 |
| 20260906123604 | 22 | 162 | 4.8 | 19.3 | 0.00 | 0.38 | 0.00 | 53 | 1016.9 |
| 20260906123104 | 21 | 165 | 11.3 | 20.9 | 0.00 | 0.38 | 0.00 | 53 | 1016.9 |
| 20260906122604 | 21 | 161 | 11.3 | 19.3 | 0.00 | 0.38 | 0.00 | 53 | 1016.9 |
| 20260906122104 | 21 | 166 | 6.4 | 16.1 | 0.00 | 0.38 | 0.00 | 54 | 1016.9 |
| 20260906121604 | 21 | 169 | 11.3 | 19.3 | 0.00 | 0.38 | 0.00 | 53 | 1016.9 |
| 20260906121104 | 21 | 151 | 11.3 | 20.9 | 0.00 | 0.38 | 0.00 | 53 | 1016.9 |
| 20260906120104 | 21 | 162 | 11.3 | 19.3 | 0.00 | 0.38 | 0.00 | 53 | 1016.6 |
| 20260906115104 | 21 | 163 | 6.4 | 16.1 | 0.00 | 0.38 | 0.00 | 53 | 1016.6 |
| 20260906114604 | 21 | 155 | 11.3 | 19.3 | 0.00 | 0.38 | 0.00 | 53 | 1016.6 |
| 20260906114104 | 21 | 156 | 8.0 | 19.3 | 0.00 | 0.38 | 0.00 | 53 | 1016.6 |
| 20260906113604 | 21 | 162 | 9.7 | 16.1 | 0.00 | 0.38 | 0.00 | 53 | 1016.6 |
| 20260906113104 | 21 | 148 | 4.8 | 16.1 | 0.00 | 0.38 | 0.00 | 53 | 1016.6 |
| 20260906112604 | 21 | 150 | 6.4 | 16.1 | 0.00 | 0.38 | 0.00 | 53 | 1016.6 |
| 20260906112104 | 21 | 164 | 11.3 | 19.3 | 0.00 | 0.38 | 0.00 | 53 | 1016.6 |
| 20260906111604 | 21 | 149 | 9.7 | 20.9 | 0.00 | 0.38 | 0.00 | 53 | 1016.6 |
| 20260906111104 | 22 | 175 | 4.8 | 16.1 | 0.00 | 0.38 | 0.00 | 53 | 1016.6 |
| 20260906110604 | 22 | 141 | 8.0 | 14.5 | 0.00 | 0.38 | 0.00 | 53 | 1016.6 |
| 20260906110105 | 22 | 162 | 8.0 | 14.5 | 0.00 | 0.38 | 0.00 | 53 | 1016.9 |
| 20260906105604 | 22 | 141 | 8.0 | 19.3 | 0.00 | 0.38 | 0.00 | 53 | 1016.9 |
| 20260906105104 | 22 | 152 | 8.0 | 19.3 | 0.00 | 0.38 | 0.00 | 53 | 1016.9 |
| 20260906104104 | 22 | 170 | 9.7 | 19.3 | 0.00 | 0.38 | 0.00 | 53 | 1016.9 |
| 20260906103604 | 22 | 160 | 9.7 | 19.3 | 0.00 | 0.38 | 0.00 | 53 | 1016.9 |
| 20260906103104 | 22 | 148 | 9.7 | 19.3 | 0.00 | 0.38 | 0.00 | 53 | 1016.9 |
| 20260906102104 | 22 | 153 | 9.7 | 22.5 | 0.00 | 0.38 | 0.00 | 53 | 1016.9 |
| 20260906101604 | 22 | 160 | 9.7 | 19.3 | 0.00 | 0.38 | 0.00 | 53 | 1016.9 |
| 20260906100604 | 22 | 172 | 6.4 | 16.1 | 0.00 | 0.38 | 0.00 | 53 | 1016.9 |
| 20260906100104 | 22 | 173 | 11.3 | 19.3 | 0.00 | 0.38 | 0.00 | 53 | 1016.6 |
| 20260906095604 | 22 | 158 | 6.4 | 19.3 | 0.00 | 0.38 | 0.00 | 53 | 1016.6 |
| 20260906095104 | 22 | 147 | 6.4 | 16.1 | 0.00 | 0.38 | 0.00 | 53 | 1016.6 |
| 20260906094604 | 22 | 167 | 8.0 | 16.1 | 0.00 | 0.38 | 0.00 | 53 | 1016.6 |
| 20260906094104 | 22 | 169 | 8.0 | 14.5 | 0.00 | 0.38 | 0.00 | 53 | 1016.6 |
| 20260906093604 | 22 | 142 | 8.0 | 16.1 | 0.00 | 0.38 | 0.00 | 53 | 1016.6 |
| 20260906090604 | 22 | 159 | 8.0 | 19.3 | 0.00 | 0.38 | 0.00 | 52 | 1016.6 |
| 20260906090104 | 22 | 136 | 8.0 | 16.1 | 0.00 | 0.38 | 0.00 | 52 | 1016.3 |
| 20260906085604 | 22 | 152 | 8.0 | 19.3 | 0.00 | 0.38 | 0.00 | 52 | 1016.3 |
| 20260906085104 | 22 | 149 | 8.0 | 19.3 | 0.00 | 0.38 | 0.00 | 52 | 1016.3 |
| 20260906084604 | 22 | 159 | 9.7 | 24.1 | 0.00 | 0.38 | 0.00 | 52 | 1016.3 |
| 20260906083604 | 22 | 147 | 4.8 | 14.5 | 0.00 | 0.38 | 0.00 | 52 | 1016.3 |
| 20260906083104 | 22 | 165 | 8.0 | 19.3 | 0.00 | 0.38 | 0.00 | 52 | 1016.3 |
| 20260906082604 | 22 | 156 | 8.0 | 19.3 | 0.00 | 0.38 | 0.00 | 52 | 1016.3 |
| 20260906081604 | 22 | 156 | 8.0 | 12.9 | 0.00 | 0.38 | 0.00 | 52 | 1016.3 |
| 20260906081104 | 22 | 137 | 8.0 | 19.3 | 0.00 | 0.38 | 0.00 | 52 | 1016.3 |
| 20260906080604 | 22 | 145 | 6.4 | 19.3 | 0.00 | 0.38 | 0.00 | 52 | 1016.3 |
| 20260906080104 | 22 | 137 | 6.4 | 19.3 | 0.00 | 0.38 | 0.00 | 52 | 1016.3 |
| 20260906075604 | 22 | 124 | 8.0 | 19.3 | 0.00 | 0.38 | 0.00 | 52 | 1016.3 |
| 20260906075103 | 22 | 142 | 4.8 | 12.9 | 0.00 | 0.38 | 0.00 | 52 | 1016.3 |
| 20260906073604 | 22 | 151 | 4.8 | 12.9 | 0.00 | 0.38 | 0.00 | 52 | 1016.3 |
| 20260906073104 | 22 | 137 | 4.8 | 14.5 | 0.00 | 0.38 | 0.00 | 52 | 1016.3 |
| 20260906072604 | 22 | 132 | 6.4 | 19.3 | 0.00 | 0.38 | 0.00 | 51 | 1016.3 |
| 20260906072104 | 22 | 146 | 4.8 | 19.3 | 0.00 | 0.38 | 0.00 | 51 | 1016.3 |
| 20260906071603 | 22 | 129 | 4.8 | 12.9 | 0.00 | 0.38 | 0.00 | 51 | 1016.3 |
| 20260906071104 | 22 | 147 | 4.8 | 11.3 | 0.00 | 0.38 | 0.00 | 51 | 1016.3 |
| 20260906070604 | 22 | 118 | 4.8 | 12.9 | 0.00 | 0.38 | 0.00 | 51 | 1016.3 |
| 20260906070104 | 22 | 133 | 8.0 | 14.5 | 0.00 | 0.38 | 0.00 | 51 | 1016.6 |
| 20260906065604 | 22 | 99 | 6.4 | 19.3 | 0.00 | 0.38 | 0.00 | 51 | 1016.6 |
| 20260906065104 | 22 | 148 | 3.2 | 14.5 | 0.00 | 0.38 | 0.00 | 51 | 1016.6 |
| 20260906064604 | 22 | 151 | 4.8 | 14.5 | 0.00 | 0.38 | 0.00 | 51 | 1016.6 |
| 20260906064105 | 22 | 149 | 4.8 | 16.1 | 0.00 | 0.38 | 0.00 | 51 | 1016.6 |
| 20260906063605 | 22 | 146 | 6.4 | 16.1 | 0.00 | 0.38 | 0.00 | 51 | 1016.6 |
| 20260906063104 | 22 | 137 | 4.8 | 19.3 | 0.00 | 0.38 | 0.00 | 51 | 1016.6 |
| 20260906062604 | 22 | 133 | 6.4 | 14.5 | 0.00 | 0.38 | 0.00 | 50 | 1016.6 |
| 20260906062104 | 22 | 128 | 4.8 | 16.1 | 0.00 | 0.38 | 0.00 | 50 | 1016.6 |
| 20260906061604 | 22 | 130 | 6.4 | 16.1 | 0.00 | 0.38 | 0.00 | 49 | 1016.3 |
| 20260906060604 | 22 | 125 | 4.8 | 12.9 | 0.00 | 0.38 | 0.00 | 48 | 1016.3 |
| 20260906060104 | 22 | 107 | 4.8 | 12.9 | 0.00 | 0.38 | 0.00 | 48 | 1016.6 |
| 20260906055603 | 22 | 118 | 4.8 | 22.5 | 0.00 | 0.38 | 0.00 | 47 | 1016.6 |
| 20260906055104 | 22 | 145 | 4.8 | 14.5 | 0.00 | 0.38 | 0.00 | 46 | 1016.6 |
| 20260906054604 | 23 | 140 | 3.2 | 19.3 | 0.00 | 0.38 | 0.00 | 45 | 1016.6 |
| 20260906054104 | 23 | 129 | 4.8 | 11.3 | 0.00 | 0.38 | 0.00 | 44 | 1016.6 |
| 20260906053604 | 23 | 129 | 4.8 | 14.5 | 0.00 | 0.38 | 0.00 | 43 | 1016.6 |
| 20260906052604 | 23 | 137 | 6.4 | 14.5 | 0.00 | 0.38 | 0.00 | 41 | 1016.6 |
| 20260906052104 | 23 | 119 | 4.8 | 16.1 | 0.00 | 0.38 | 0.00 | 41 | 1016.6 |
| 20260906051604 | 23 | 117 | 4.8 | 12.9 | 0.00 | 0.38 | 0.00 | 41 | 1016.6 |
| 20260906051104 | 23 | 137 | 3.2 | 11.3 | 0.00 | 0.38 | 0.00 | 42 | 1016.6 |
| 20260906050604 | 23 | 130 | 3.2 | 9.7 | 0.00 | 0.38 | 0.00 | 42 | 1016.6 |
| 20260906045104 | 23 | 133 | 4.8 | 11.3 | 0.00 | 0.38 | 0.38 | 43 | 1016.3 |
| 20260906044604 | 23 | 129 | 4.8 | 9.7 | 0.00 | 0.38 | 0.38 | 43 | 1016.3 |
| 20260906044104 | 23 | 105 | 4.8 | 19.3 | 0.00 | 0.38 | 0.38 | 44 | 1016.3 |
| 20260906043604 | 24 | 120 | 8.0 | 14.5 | 0.00 | 0.38 | 0.38 | 44 | 1016.3 |
| 20260906043104 | 24 | 158 | 6.4 | 14.5 | 0.00 | 0.38 | 0.38 | 44 | 1016.3 |
| 20260906042604 | 24 | 134 | 4.8 | 14.5 | 0.00 | 0.38 | 0.38 | 45 | 1016.3 |
| 20260906042104 | 24 | 127 | 4.8 | 19.3 | 0.00 | 0.38 | 0.38 | 45 | 1016.3 |
| 20260906041604 | 24 | 119 | 4.8 | 12.9 | 0.00 | 0.38 | 0.38 | 46 | 1016.3 |
| 20260906040604 | 24 | 164 | 4.8 | 14.5 | 0.00 | 0.38 | 0.38 | 47 | 1016.3 |
| 20260906040104 | 24 | 140 | 4.8 | 12.9 | 0.00 | 0.38 | 0.38 | 47 | 1016.3 |
| 20260906035604 | 24 | 152 | 3.2 | 19.3 | 0.00 | 0.38 | 0.38 | 47 | 1016.3 |
| 20260906035104 | 24 | 116 | 3.2 | 19.3 | 0.00 | 0.38 | 0.38 | 47 | 1016.3 |
| 20260906034604 | 24 | 115 | 4.8 | 11.3 | 0.00 | 0.38 | 0.38 | 48 | 1016.3 |
| 20260906033605 | 24 | 154 | 3.2 | 12.9 | 0.00 | 0.38 | 0.38 | 48 | 1016.3 |
| 20260906033104 | 24 | 129 | 4.8 | 14.5 | 0.00 | 0.38 | 0.38 | 48 | 1016.3 |
| 20260906032604 | 24 | 129 | 4.8 | 16.1 | 0.00 | 0.38 | 0.38 | 48 | 1016.3 |
| 20260906032104 | 24 | 110 | 3.2 | 14.5 | 0.00 | 0.38 | 0.38 | 48 | 1016.3 |
| 20260906031604 | 24 | 123 | 4.8 | 9.7 | 0.00 | 0.38 | 0.38 | 49 | 1016.3 |
| 20260906031104 | 24 | 123 | 3.2 | 8.0 | 0.00 | 0.38 | 0.38 | 51 | 1016.3 |
| 20260906030104 | 24 | 109 | 4.8 | 12.9 | 0.00 | 0.38 | 0.38 | 52 | 1015.9 |
| 20260906025604 | 24 | 105 | 4.8 | 16.1 | 0.00 | 0.38 | 0.38 | 52 | 1015.9 |
| 20260906025104 | 24 | 143 | 3.2 | 9.7 | 0.00 | 0.38 | 0.38 | 53 | 1015.9 |
| 20260906024604 | 24 | 102 | 6.4 | 12.9 | 0.00 | 0.38 | 0.38 | 54 | 1015.9 |
| 20260906024104 | 24 | 125 | 1.6 | 11.3 | 0.00 | 0.38 | 0.38 | 55 | 1015.9 |
| 20260906023104 | 24 | 89 | 3.2 | 9.7 | 0.00 | 0.38 | 0.38 | 61 | 1015.9 |
| 20260906022604 | 24 | 119 | 1.6 | 4.8 | 0.00 | 0.38 | 0.38 | 63 | 1015.9 |
| 20260906021603 | 25 | 114 | 3.2 | 9.7 | 0.00 | 0.38 | 0.38 | 66 | 1015.9 |
| 20260906020604 | 25 | 95 | 3.2 | 12.9 | 0.00 | 0.38 | 0.38 | 67 | 1015.9 |
| 20260906020104 | 25 | 108 | 3.2 | 12.9 | 0.00 | 0.38 | 0.38 | 68 | 1015.2 |
| 20260906015604 | 25 | 115 | 1.6 | 9.7 | 0.00 | 0.38 | 0.38 | 69 | 1015.2 |
| 20260906015104 | 25 | 112 | 1.6 | 4.8 | 0.00 | 0.38 | 0.38 | 69 | 1015.2 |
| 20260906014604 | 25 | 108 | 1.6 | 4.8 | 0.00 | 0.38 | 0.38 | 70 | 1015.2 |
| 20260906014104 | 25 | 89 | 3.2 | 4.8 | 0.00 | 0.38 | 0.38 | 71 | 1015.2 |
| 20260906013604 | 25 | 114 | 1.6 | 4.8 | 0.00 | 0.38 | 0.38 | 71 | 1015.2 |
| 20260906013104 | 25 | 97 | 1.6 | 9.7 | 0.00 | 0.38 | 0.38 | 72 | 1015.2 |
| 20260906012604 | 25 | 111 | 1.6 | 4.8 | 0.00 | 0.38 | 0.38 | 72 | 1015.2 |
| 20260906012104 | 25 | 113 | 0.0 | 4.8 | 0.00 | 0.38 | 0.38 | 73 | 1015.2 |
| 20260906011105 | 25 | 95 | 1.6 | 4.8 | 0.00 | 0.38 | 0.38 | 73 | 1015.2 |
| 20260906010603 | 25 | 123 | 0.0 | 3.2 | 0.00 | 0.38 | 0.38 | 73 | 1015.2 |
| 20260906010104 | 26 | 144 | 1.6 | 3.2 | 0.00 | 0.38 | 0.38 | 73 | 1015.6 |
| 20260906005604 | 26 | 141 | 3.2 | 9.7 | 0.00 | 0.38 | 0.38 | 73 | 1015.6 |
| 20260906005105 | 26 | 118 | 3.2 | 8.0 | 0.00 | 0.38 | 0.38 | 73 | 1015.6 |
| 20260906003604 | 26 | 102 | 3.2 | 4.8 | 0.00 | 0.38 | 0.38 | 73 | 1015.6 |
| 20260906003104 | 26 | 116 | 3.2 | 9.7 | 0.00 | 0.38 | 0.38 | 73 | 1015.6 |
| 20260906002604 | 27 | 127 | 3.2 | 8.0 | 0.00 | 0.38 | 0.38 | 72 | 1015.6 |
| 20260906002104 | 27 | 130 | 3.2 | 9.7 | 0.00 | 0.38 | 0.38 | 72 | 1015.6 |
| 20260906001604 | 27 | 132 | 3.2 | 11.3 | 0.00 | 0.38 | 0.38 | 72 | 1015.6 |
| 20260906001105 | 27 | 124 | 3.2 | 9.7 | 0.00 | 0.38 | 0.38 | 72 | 1015.6 |
| 20260906000604 | 27 | 138 | 4.8 | 11.3 | 0.00 | 0.38 | 0.38 | 71 | 1015.6 |
| 20260906000104 | 27 | 120 | 3.2 | 11.3 | 0.00 | 0.38 | 0.38 | 71 | 1015.2 |
| 20260905235604 | 27 | 115 | 4.8 | 9.7 | 0.00 | 0.38 | 0.38 | 71 | 1015.2 |
| 20260905234604 | 27 | 107 | 8.0 | 16.1 | 0.00 | 0.38 | 0.38 | 70 | 1015.2 |
| 20260905234103 | 28 | 107 | 4.8 | 12.9 | 0.00 | 0.38 | 0.38 | 70 | 1015.2 |
| 20260905233604 | 28 | 154 | 4.8 | 12.9 | 0.00 | 0.38 | 0.38 | 69 | 1015.2 |
| 20260905233104 | 28 | 122 | 4.8 | 16.1 | 0.00 | 0.38 | 0.38 | 69 | 1015.2 |
| 20260905232604 | 28 | 115 | 8.0 | 19.3 | 0.00 | 0.38 | 0.38 | 69 | 1015.2 |
| 20260905232104 | 28 | 114 | 4.8 | 12.9 | 0.00 | 0.38 | 0.38 | 69 | 1015.2 |
| 20260905231604 | 28 | 131 | 8.0 | 16.1 | 0.00 | 0.38 | 0.38 | 68 | 1015.2 |
| 20260905230604 | 28 | 138 | 1.6 | 19.3 | 0.00 | 0.38 | 0.38 | 68 | 1015.2 |
| 20260905230105 | 28 | 123 | 6.4 | 19.3 | 0.00 | 0.38 | 0.38 | 67 | 1014.9 |
| 20260905225604 | 28 | 143 | 3.2 | 19.3 | 0.00 | 0.38 | 0.38 | 67 | 1014.9 |
| 20260905225104 | 28 | 120 | 3.2 | 14.5 | 0.00 | 0.38 | 0.38 | 67 | 1014.9 |
| 20260905224604 | 28 | 163 | 8.0 | 16.1 | 0.00 | 0.38 | 0.38 | 67 | 1014.9 |
| 20260905224104 | 28 | 129 | 4.8 | 14.5 | 0.00 | 0.38 | 0.38 | 67 | 1014.9 |
| 20260905223604 | 28 | 90 | 4.8 | 12.9 | 0.00 | 0.38 | 0.38 | 68 | 1014.9 |
| 20260905221104 | 28 | 170 | 3.2 | 14.5 | 0.00 | 0.38 | 0.38 | 67 | 1014.9 |
| 20260905220604 | 28 | 62 | 3.2 | 14.5 | 0.00 | 0.38 | 0.38 | 68 | 1014.9 |
| 20260905220104 | 28 | 124 | 1.6 | 16.1 | 0.00 | 0.38 | 0.38 | 68 | 1014.6 |
| 20260905215604 | 28 | 113 | 3.2 | 11.3 | 0.00 | 0.38 | 0.38 | 69 | 1014.6 |
| 20260905215104 | 28 | 79 | 3.2 | 11.3 | 0.00 | 0.38 | 0.38 | 68 | 1014.6 |
| 20260905214604 | 28 | 79 | 1.6 | 8.0 | 0.00 | 0.38 | 0.38 | 69 | 1014.6 |
| 20260905213104 | 28 | 83 | 3.2 | 11.3 | 0.00 | 0.38 | 0.38 | 69 | 1014.6 |
| 20260905212603 | 27 | 63 | 3.2 | 14.5 | 0.00 | 0.38 | 0.38 | 69 | 1014.6 |
| 20260905211604 | 28 | 99 | 4.8 | 14.5 | 0.00 | 0.38 | 0.38 | 69 | 1014.6 |
| 20260905210604 | 27 | 90 | 6.4 | 14.5 | 0.00 | 0.38 | 0.38 | 68 | 1014.6 |
| 20260905210104 | 27 | 108 | 4.8 | 19.3 | 0.00 | 0.38 | 0.38 | 68 | 1014.2 |
| 20260905205603 | 27 | 120 | 4.8 | 14.5 | 0.00 | 0.38 | 0.38 | 67 | 1014.2 |
| 20260905205104 | 27 | 141 | 8.0 | 16.1 | 0.00 | 0.38 | 0.38 | 68 | 1014.2 |
| 20260905204604 | 27 | 126 | 8.0 | 14.5 | 0.00 | 0.38 | 0.38 | 67 | 1014.2 |
| 20260905204104 | 28 | 107 | 4.8 | 14.5 | 0.00 | 0.38 | 0.38 | 66 | 1014.2 |
| 20260905203604 | 28 | 106 | 3.2 | 11.3 | 0.00 | 0.38 | 0.38 | 66 | 1014.2 |
| 20260905202104 | 28 | 109 | 3.2 | 11.3 | 0.00 | 0.38 | 0.38 | 65 | 1014.2 |
| 20260905201604 | 28 | 96 | 3.2 | 14.5 | 0.00 | 0.38 | 0.38 | 64 | 1014.2 |
| 20260905201104 | 27 | 107 | 6.4 | 16.1 | 0.00 | 0.38 | 0.38 | 65 | 1014.2 |
| 20260905200603 | 27 | 117 | 1.6 | 11.3 | 0.00 | 0.38 | 0.38 | 68 | 1014.2 |
| 20260905195104 | 27 | 129 | 4.8 | 16.1 | 0.00 | 0.38 | 0.38 | 67 | 1014.9 |
| 20260905194104 | 27 | 155 | 4.8 | 19.3 | 0.00 | 0.38 | 0.38 | 68 | 1014.9 |
| 20260905193605 | 27 | 126 | 4.8 | 22.5 | 0.00 | 0.38 | 0.38 | 70 | 1014.9 |
| 20260905193104 | 28 | 100 | 6.4 | 22.5 | 0.00 | 0.38 | 0.38 | 69 | 1014.9 |
| 20260905192604 | 28 | 109 | 4.8 | 16.1 | 0.00 | 0.38 | 0.38 | 66 | 1014.9 |
| 20260905192104 | 28 | 87 | 6.4 | 25.7 | 0.00 | 0.38 | 0.38 | 66 | 1014.9 |
| 20260905191104 | 29 | 82 | 6.4 | 25.7 | 0.00 | 0.38 | 0.38 | 65 | 1014.9 |
| 20260905185604 | 30 | 79 | 4.8 | 12.9 | 0.00 | 0.38 | 0.38 | 61 | 1014.9 |
| 20260905185104 | 30 | 106 | 1.6 | 4.8 | 0.00 | 0.38 | 0.38 | 59 | 1014.9 |
| 20260905184604 | 30 | 154 | 0.0 | 4.8 | 0.00 | 0.38 | 0.38 | 60 | 1014.9 |